createdAt,value
2019-02-25T00:00:59.384Z,94.83
2019-02-25T00:02:04.784Z,94.96
2019-02-25T00:03:10.400Z,94.84
2019-02-25T00:04:16.266Z,94.84
2019-02-25T00:05:22.159Z,94.50
2019-02-25T00:06:28.109Z,93.89
2019-02-25T00:07:34.156Z,92.31
2019-02-25T00:08:40.110Z,90.67
2019-02-25T00:09:46.033Z,90.10
2019-02-25T00:10:52.034Z,90.38
2019-02-25T00:11:57.981Z,90.59
2019-02-25T00:13:03.906Z,90.54
2019-02-25T00:14:09.691Z,90.80
2019-02-25T00:15:15.606Z,91.21
2019-02-25T00:16:21.489Z,91.67
2019-02-25T00:17:27.406Z,92.07
2019-02-25T00:18:33.319Z,92.21
2019-02-25T00:19:39.223Z,92.46
2019-02-25T00:20:45.167Z,92.74
2019-02-25T00:21:51.085Z,93.08
2019-02-25T00:22:57.024Z,92.65
2019-02-25T00:24:02.961Z,92.95
2019-02-25T00:25:08.919Z,93.17
2019-02-25T00:26:14.842Z,93.40
2019-02-25T00:27:21.803Z,93.04
2019-02-25T00:28:27.747Z,92.78
2019-02-25T00:29:33.645Z,92.71
2019-02-25T00:30:39.607Z,92.68
2019-02-25T00:31:45.541Z,92.72
2019-02-25T00:32:51.469Z,93.21
2019-02-25T00:33:57.399Z,93.40
2019-02-25T00:35:02.979Z,93.55
2019-02-25T00:36:09.587Z,94.31
2019-02-25T00:37:15.904Z,94.19
2019-02-25T00:38:21.826Z,93.58
2019-02-25T00:39:27.814Z,93.02
2019-02-25T00:40:33.708Z,93.13
2019-02-25T00:41:40.302Z,93.52
2019-02-25T00:42:46.240Z,93.69
2019-02-25T00:43:52.189Z,93.88
2019-02-25T00:44:58.103Z,94.12
2019-02-25T00:46:04.021Z,94.38
2019-02-25T00:47:09.978Z,94.35
2019-02-25T00:48:15.907Z,94.78
2019-02-25T00:49:21.847Z,94.49
2019-02-25T00:50:27.779Z,94.61
2019-02-25T00:51:33.729Z,94.73
2019-02-25T00:52:39.731Z,95.07
2019-02-25T00:53:45.666Z,95.29
2019-02-25T00:54:51.613Z,95.45
2019-02-25T00:55:57.590Z,95.50
2019-02-25T00:57:03.676Z,95.50
2019-02-25T00:58:09.962Z,95.41
2019-02-25T00:59:16.539Z,95.38
2019-02-25T01:00:21.790Z,95.34
2019-02-25T01:01:27.702Z,95.35
2019-02-25T01:02:33.719Z,95.13
2019-02-25T01:03:39.679Z,95.43
2019-02-25T01:04:45.625Z,95.43
2019-02-25T01:05:51.258Z,95.80
2019-02-25T01:06:56.800Z,95.87
2019-02-25T01:08:02.366Z,96.08
2019-02-25T01:09:07.990Z,95.73
2019-02-25T01:10:13.848Z,95.28
2019-02-25T01:11:19.766Z,95.32
2019-02-25T01:12:25.712Z,95.94
2019-02-25T01:13:31.598Z,96.56
2019-02-25T01:14:37.520Z,96.85
2019-02-25T01:15:43.454Z,96.95
2019-02-25T01:16:49.331Z,97.12
2019-02-25T01:17:56.096Z,96.92
2019-02-25T01:19:02.528Z,97.13
2019-02-25T01:20:08.587Z,97.30
2019-02-25T01:21:14.183Z,97.25
2019-02-25T01:22:20.098Z,97.14
2019-02-25T01:23:26.036Z,97.05
2019-02-25T01:24:31.950Z,96.28
2019-02-25T01:25:37.889Z,95.97
2019-02-25T01:26:43.819Z,96.00
2019-02-25T01:27:49.789Z,95.51
2019-02-25T01:28:55.740Z,95.58
2019-02-25T01:30:01.679Z,96.38
2019-02-25T01:31:07.651Z,96.93
2019-02-25T01:32:13.571Z,97.13
2019-02-25T01:33:19.576Z,96.94
2019-02-25T01:34:25.593Z,96.90
2019-02-25T01:35:31.522Z,97.13
2019-02-25T01:36:37.480Z,97.12
2019-02-25T01:37:43.405Z,97.17
2019-02-25T01:38:49.344Z,96.59
2019-02-25T01:39:55.280Z,96.22
2019-02-25T01:41:01.231Z,95.87
2019-02-25T01:42:07.157Z,95.88
2019-02-25T01:43:13.165Z,96.13
2019-02-25T01:44:19.066Z,96.68
2019-02-25T01:45:24.619Z,97.15
2019-02-25T01:46:30.646Z,97.55
2019-02-25T01:47:36.573Z,97.49
2019-02-25T01:48:42.498Z,97.61
2019-02-25T01:49:48.479Z,97.41
2019-02-25T01:50:54.437Z,97.75
2019-02-25T01:52:00.361Z,98.03
2019-02-25T01:53:06.073Z,97.90
2019-02-25T01:54:11.638Z,98.22
2019-02-25T01:55:17.603Z,98.17
2019-02-25T01:56:23.587Z,98.28
2019-02-25T01:57:29.509Z,98.23
2019-02-25T01:58:36.859Z,98.28
2019-02-25T01:59:42.738Z,98.35
2019-02-25T02:00:49.348Z,97.75
2019-02-25T02:01:55.780Z,96.92
2019-02-25T02:03:01.386Z,96.11
2019-02-25T02:04:07.279Z,95.95
2019-02-25T02:05:13.332Z,96.03
2019-02-25T02:06:19.266Z,96.23
2019-02-25T02:07:25.196Z,96.46
2019-02-25T02:08:31.200Z,96.77
2019-02-25T02:09:37.083Z,97.31
2019-02-25T02:10:43.033Z,97.44
2019-02-25T02:11:48.973Z,97.52
2019-02-25T02:12:54.898Z,97.56
2019-02-25T02:14:00.833Z,97.23
2019-02-25T02:15:10.665Z,96.96
2019-02-25T02:16:16.603Z,96.92
2019-02-25T02:17:22.502Z,97.27
2019-02-25T02:18:28.495Z,97.50
2019-02-25T02:19:34.456Z,97.57
2019-02-25T02:20:40.401Z,97.99
2019-02-25T02:21:46.347Z,98.40
2019-02-25T02:22:52.611Z,99.26
2019-02-25T02:23:58.556Z,99.65
2019-02-25T02:25:04.126Z,99.78
2019-02-25T02:26:09.669Z,100.00
2019-02-25T02:27:15.696Z,100.00
2019-02-25T02:28:21.686Z,100.00
2019-02-25T02:29:27.614Z,100.00
2019-02-25T02:30:33.544Z,100.00
2019-02-25T02:31:39.504Z,100.00
2019-02-25T02:32:45.031Z,99.90
2019-02-25T02:33:51.001Z,99.47
2019-02-25T02:34:56.897Z,99.25
2019-02-25T02:36:02.805Z,99.31
2019-02-25T02:37:08.754Z,99.09
2019-02-25T02:38:14.661Z,98.89
2019-02-25T02:39:20.634Z,98.18
2019-02-25T02:40:26.592Z,97.83
2019-02-25T02:41:31.830Z,98.07
2019-02-25T02:42:37.760Z,98.31
2019-02-25T02:43:43.705Z,98.44
2019-02-25T02:44:49.574Z,98.58
2019-02-25T02:45:56.529Z,98.99
2019-02-25T02:47:11.534Z,99.03
2019-02-25T02:48:26.761Z,99.32
2019-02-25T02:49:32.718Z,99.22
2019-02-25T02:50:38.660Z,99.44
2019-02-25T02:51:44.600Z,99.90
2019-02-25T02:52:50.195Z,100.00
2019-02-25T02:53:56.163Z,100.00
2019-02-25T02:55:02.100Z,100.00
2019-02-25T02:56:08.060Z,100.00
2019-02-25T02:57:13.995Z,100.00
2019-02-25T02:58:19.910Z,100.00
2019-02-25T02:59:25.844Z,100.00
2019-02-25T03:00:31.395Z,100.00
2019-02-25T03:01:37.369Z,100.00
2019-02-25T03:02:43.365Z,99.27
2019-02-25T03:03:49.759Z,98.34
2019-02-25T03:04:56.165Z,97.80
2019-02-25T03:06:02.082Z,97.29
2019-02-25T03:07:08.013Z,97.18
2019-02-25T03:08:13.987Z,97.13
2019-02-25T03:09:19.987Z,97.00
2019-02-25T03:10:25.951Z,96.90
2019-02-25T03:11:31.885Z,97.00
2019-02-25T03:12:37.828Z,96.98
2019-02-25T03:13:43.778Z,97.03
2019-02-25T03:14:49.732Z,97.50
2019-02-25T03:15:55.630Z,98.34
2019-02-25T03:17:01.571Z,98.65
2019-02-25T03:18:07.127Z,98.89
2019-02-25T03:19:13.044Z,99.74
2019-02-25T03:20:18.595Z,100.00
2019-02-25T03:21:24.544Z,100.00
2019-02-25T03:22:30.492Z,100.00
2019-02-25T03:23:36.425Z,100.00
2019-02-25T03:24:42.355Z,100.00
2019-02-25T03:25:47.929Z,100.00
2019-02-25T03:26:53.875Z,100.00
2019-02-25T03:27:59.808Z,100.00
2019-02-25T03:29:05.796Z,100.00
2019-02-25T03:30:18.845Z,100.00
2019-02-25T03:31:24.783Z,100.00
2019-02-25T03:32:30.711Z,100.00
2019-02-25T03:33:36.725Z,100.00
2019-02-25T03:34:42.695Z,100.00
2019-02-25T03:35:48.626Z,100.00
2019-02-25T03:36:54.545Z,100.00
2019-02-25T03:38:00.509Z,100.00
2019-02-25T03:39:05.854Z,100.00
2019-02-25T03:40:11.892Z,100.00
2019-02-25T03:41:17.845Z,100.00
2019-02-25T03:42:23.727Z,100.00
2019-02-25T03:43:29.639Z,100.00
2019-02-25T03:44:35.621Z,100.00
2019-02-25T03:45:41.591Z,100.00
2019-02-25T03:46:47.491Z,100.00
2019-02-25T03:47:53.403Z,100.00
2019-02-25T03:48:59.329Z,100.00
2019-02-25T03:50:04.598Z,100.00
2019-02-25T03:51:10.504Z,100.00
2019-02-25T03:52:16.461Z,100.00
2019-02-25T03:53:22.421Z,100.00
2019-02-25T03:54:28.395Z,100.00
2019-02-25T03:55:34.012Z,100.00
2019-02-25T03:56:39.974Z,100.00
2019-02-25T03:57:45.970Z,100.00
2019-02-25T03:58:51.522Z,100.00
2019-02-25T03:59:57.498Z,100.00
2019-02-25T04:01:02.733Z,100.00
2019-02-25T04:02:08.741Z,100.00
2019-02-25T04:03:14.693Z,100.00
2019-02-25T04:04:21.238Z,100.00
2019-02-25T04:05:26.831Z,100.00
2019-02-25T04:06:32.403Z,100.00
2019-02-25T04:07:38.041Z,100.00
2019-02-25T04:08:43.356Z,99.92
2019-02-25T04:09:49.341Z,99.61
2019-02-25T04:10:55.299Z,99.64
2019-02-25T04:12:00.900Z,99.84
2019-02-25T04:13:06.817Z,100.00
2019-02-25T04:14:12.805Z,99.94
2019-02-25T04:15:17.835Z,99.47
2019-02-25T04:16:23.788Z,98.85
2019-02-25T04:17:29.368Z,98.89
2019-02-25T04:18:35.278Z,98.73
2019-02-25T04:19:41.219Z,99.27
2019-02-25T04:20:47.168Z,99.44
2019-02-25T04:21:53.151Z,99.80
2019-02-25T04:22:59.094Z,100.00
2019-02-25T04:24:05.029Z,100.00
2019-02-25T04:25:10.289Z,100.00
2019-02-25T04:26:15.907Z,100.00
2019-02-25T04:27:21.837Z,100.00
2019-02-25T04:28:27.769Z,100.00
2019-02-25T04:29:33.720Z,100.00
2019-02-25T04:30:39.747Z,100.00
2019-02-25T04:31:45.651Z,100.00
2019-02-25T04:32:51.608Z,100.00
2019-02-25T04:33:57.587Z,100.00
2019-02-25T04:35:03.395Z,100.00
2019-02-25T04:36:10.487Z,100.00
2019-02-25T04:37:16.373Z,100.00
2019-02-25T04:38:22.284Z,100.00
2019-02-25T04:39:28.265Z,100.00
2019-02-25T04:40:34.378Z,100.00
2019-02-25T04:41:40.302Z,100.00
2019-02-25T04:42:46.271Z,100.00
2019-02-25T04:43:52.190Z,100.00
2019-02-25T04:44:58.180Z,100.00
2019-02-25T04:46:04.146Z,100.00
2019-02-25T04:47:10.062Z,100.00
2019-02-25T04:48:16.012Z,100.00
2019-02-25T04:49:21.960Z,100.00
2019-02-25T04:50:29.716Z,100.00
2019-02-25T04:51:36.120Z,100.00
2019-02-25T04:52:42.079Z,100.00
2019-02-25T04:53:48.023Z,100.00
2019-02-25T04:54:53.988Z,100.00
2019-02-25T04:55:59.952Z,100.00
2019-02-25T04:57:05.911Z,100.00
2019-02-25T04:58:11.863Z,100.00
2019-02-25T04:59:19.083Z,100.00
2019-02-25T05:00:25.048Z,100.00
2019-02-25T05:01:31.004Z,100.00
2019-02-25T05:02:36.981Z,100.00
2019-02-25T05:03:42.926Z,100.00
2019-02-25T05:04:48.888Z,100.00
2019-02-25T05:05:54.836Z,100.00
2019-02-25T05:07:00.890Z,100.00
2019-02-25T05:08:06.810Z,100.00
2019-02-25T05:09:12.740Z,100.00
2019-02-25T05:10:18.375Z,100.00
2019-02-25T05:11:25.760Z,100.00
2019-02-25T05:12:30.203Z,100.00
2019-02-25T05:13:36.116Z,100.00
2019-02-25T05:14:42.063Z,100.00
2019-02-25T05:15:48.007Z,100.00
2019-02-25T05:16:53.974Z,100.00
2019-02-25T05:17:59.966Z,100.00
2019-02-25T05:19:05.884Z,100.00
2019-02-25T05:20:11.498Z,100.00
2019-02-25T05:21:17.414Z,100.00
2019-02-25T05:22:23.013Z,100.00
2019-02-25T05:23:29.014Z,100.00
2019-02-25T05:24:35.033Z,100.00
2019-02-25T05:25:41.522Z,100.00
2019-02-25T05:26:47.470Z,100.00
2019-02-25T05:27:53.413Z,100.00
2019-02-25T05:28:59.389Z,100.00
2019-02-25T05:30:05.473Z,99.34
2019-02-25T05:31:11.408Z,98.81
2019-02-25T05:32:17.333Z,98.74
2019-02-25T05:33:23.322Z,98.93
2019-02-25T05:34:29.294Z,99.33
2019-02-25T05:35:35.218Z,99.64
2019-02-25T05:36:41.106Z,99.54
2019-02-25T05:37:47.010Z,99.84
2019-02-25T05:38:52.934Z,100.00
2019-02-25T05:39:58.891Z,100.00
2019-02-25T05:41:04.518Z,100.00
2019-02-25T05:42:10.439Z,100.00
2019-02-25T05:43:16.379Z,100.00
2019-02-25T05:44:22.001Z,100.00
2019-02-25T05:45:27.960Z,100.00
2019-02-25T05:46:33.952Z,100.00
2019-02-25T05:47:39.891Z,100.00
2019-02-25T05:48:45.803Z,100.00
2019-02-25T05:49:51.777Z,100.00
2019-02-25T05:50:57.780Z,100.00
2019-02-25T05:52:03.733Z,100.00
2019-02-25T05:53:09.671Z,100.00
2019-02-25T05:54:15.617Z,100.00
2019-02-25T05:55:21.600Z,100.00
2019-02-25T05:56:27.529Z,100.00
2019-02-25T05:57:33.474Z,100.00
2019-02-25T05:58:39.424Z,100.00
2019-02-25T05:59:45.364Z,100.00
2019-02-25T06:00:51.313Z,100.00
2019-02-25T06:01:57.247Z,100.00
2019-02-25T06:03:03.225Z,100.00
2019-02-25T06:04:09.190Z,100.00
2019-02-25T06:05:14.806Z,100.00
2019-02-25T06:06:20.814Z,100.00
2019-02-25T06:07:26.781Z,100.00
2019-02-25T06:08:32.715Z,100.00
2019-02-25T06:09:38.662Z,100.00
2019-02-25T06:10:44.645Z,100.00
2019-02-25T06:11:50.584Z,100.00
2019-02-25T06:12:56.527Z,100.00
2019-02-25T06:14:02.126Z,100.00
2019-02-25T06:15:08.743Z,100.00
2019-02-25T06:16:15.204Z,100.00
2019-02-25T06:17:21.131Z,100.00
2019-02-25T06:18:27.092Z,100.00
2019-02-25T06:19:33.019Z,100.00
2019-02-25T06:20:38.973Z,100.00
2019-02-25T06:21:44.906Z,100.00
2019-02-25T06:22:50.854Z,100.00
2019-02-25T06:23:56.799Z,100.00
2019-02-25T06:25:02.770Z,100.00
2019-02-25T06:26:08.966Z,100.00
2019-02-25T06:27:14.920Z,100.00
2019-02-25T06:28:20.846Z,100.00
2019-02-25T06:29:26.812Z,100.00
2019-02-25T06:30:32.728Z,100.00
2019-02-25T06:31:38.293Z,100.00
2019-02-25T06:32:44.284Z,100.00
2019-02-25T06:33:50.226Z,100.00
2019-02-25T06:34:56.157Z,100.00
2019-02-25T06:36:02.946Z,100.00
2019-02-25T06:37:09.434Z,100.00
2019-02-25T06:38:15.403Z,100.00
2019-02-25T06:39:21.354Z,100.00
2019-02-25T06:40:27.314Z,100.00
2019-02-25T06:41:33.292Z,100.00
2019-02-25T06:42:39.187Z,100.00
2019-02-25T06:43:45.121Z,100.00
2019-02-25T06:44:51.049Z,100.00
2019-02-25T06:45:57.071Z,100.00
2019-02-25T06:47:03.069Z,100.00
2019-02-25T06:48:09.000Z,100.00
2019-02-25T06:49:14.913Z,100.00
2019-02-25T06:50:20.482Z,100.00
2019-02-25T06:51:26.453Z,100.00
2019-02-25T06:52:32.363Z,100.00
2019-02-25T06:53:38.290Z,100.00
2019-02-25T06:54:44.246Z,100.00
2019-02-25T06:55:50.257Z,100.00
2019-02-25T06:56:56.233Z,100.00
2019-02-25T06:58:02.159Z,100.00
2019-02-25T06:59:08.114Z,100.00
2019-02-25T07:00:16.751Z,100.00
2019-02-25T07:01:22.724Z,100.00
2019-02-25T07:02:28.643Z,100.00
2019-02-25T07:03:34.682Z,100.00
2019-02-25T07:04:42.788Z,100.00
2019-02-25T07:05:48.523Z,100.00
2019-02-25T07:07:04.950Z,100.00
2019-02-25T07:08:30.440Z,100.00
2019-02-25T07:09:38.920Z,100.00
2019-02-25T07:10:46.119Z,100.00
2019-02-25T07:11:54.228Z,100.00
2019-02-25T07:13:00.337Z,100.00
2019-02-25T07:14:15.643Z,100.00
2019-02-25T07:15:21.314Z,100.00
2019-02-25T07:16:27.518Z,100.00
2019-02-25T07:17:34.137Z,100.00
2019-02-25T07:18:49.795Z,100.00
2019-02-25T07:21:32.528Z,100.00
2019-02-25T07:22:42.703Z,100.00
2019-02-25T07:23:50.975Z,100.00
2019-02-25T07:24:57.179Z,100.00
2019-02-25T07:26:08.553Z,100.00
2019-02-25T07:29:07.042Z,100.00
2019-02-25T07:30:20.341Z,100.00
2019-02-25T07:31:26.066Z,100.00
2019-02-25T07:32:46.629Z,100.00
2019-02-25T07:34:07.251Z,100.00
2019-02-25T07:35:15.486Z,100.00
2019-02-25T07:36:32.967Z,100.00
2019-02-25T07:39:17.261Z,98.78
2019-02-25T07:40:26.657Z,99.16
2019-02-25T07:41:33.770Z,99.39
2019-02-25T07:42:50.296Z,99.08
2019-02-25T07:45:41.012Z,93.81
2019-02-25T07:46:48.175Z,93.58
2019-02-25T07:48:05.641Z,92.71
2019-02-25T07:49:11.723Z,92.73
2019-02-25T07:50:28.175Z,93.32
2019-02-25T07:51:36.671Z,93.84
2019-02-25T07:52:57.205Z,95.37
2019-02-25T07:54:19.684Z,94.74
2019-02-25T07:55:39.947Z,96.87
2019-02-25T07:56:46.042Z,95.94
2019-02-25T07:57:55.394Z,94.98
2019-02-25T07:59:01.070Z,92.66
2019-02-25T08:00:07.204Z,89.99
2019-02-25T08:01:25.584Z,88.36
2019-02-25T08:02:31.257Z,87.01
2019-02-25T08:03:37.758Z,86.81
2019-02-25T08:04:53.403Z,86.49
2019-02-25T08:06:11.900Z,85.70
2019-02-25T08:07:15.742Z,85.57
2019-02-25T08:08:23.172Z,84.19
2019-02-25T08:09:28.833Z,83.65
2019-02-25T08:10:46.228Z,83.39
2019-02-25T08:11:52.298Z,82.45
2019-02-25T08:13:00.204Z,81.32
2019-02-25T08:14:09.006Z,80.96
2019-02-25T08:15:18.556Z,81.05
2019-02-25T08:18:05.662Z,81.41
2019-02-25T08:19:27.197Z,82.12
2019-02-25T08:20:39.732Z,82.20
2019-02-25T08:21:49.779Z,81.46
2019-02-25T08:22:56.941Z,80.00
2019-02-25T08:25:45.102Z,79.13
2019-02-25T08:26:52.789Z,78.99
2019-02-25T08:28:00.301Z,77.86
2019-02-25T08:29:05.635Z,77.06
2019-02-25T08:30:11.676Z,77.58
2019-02-25T08:31:17.728Z,77.34
2019-02-25T08:32:33.422Z,77.42
2019-02-25T08:33:39.481Z,76.66
2019-02-25T08:34:50.901Z,75.70
2019-02-25T08:36:03.410Z,75.21
2019-02-25T08:37:10.670Z,75.76
2019-02-25T08:38:16.127Z,76.04
2019-02-25T08:39:24.670Z,74.84
2019-02-25T08:40:35.945Z,73.85
2019-02-25T08:41:46.878Z,73.53
2019-02-25T08:42:52.658Z,74.30
2019-02-25T08:43:59.860Z,74.37
2019-02-25T08:46:44.957Z,73.05
2019-02-25T08:47:53.117Z,73.28
2019-02-25T08:49:12.701Z,73.68
2019-02-25T08:50:18.649Z,72.71
2019-02-25T08:51:24.225Z,70.46
2019-02-25T08:52:30.224Z,69.76
2019-02-25T08:53:36.168Z,69.72
2019-02-25T08:54:41.718Z,69.68
2019-02-25T08:55:47.702Z,69.38
2019-02-25T08:56:53.291Z,70.13
2019-02-25T08:57:59.249Z,68.99
2019-02-25T08:59:04.872Z,68.77
2019-02-25T09:00:11.634Z,67.33
2019-02-25T09:01:17.576Z,67.08
2019-02-25T09:02:23.530Z,65.25
2019-02-25T09:03:29.428Z,63.14
2019-02-25T09:04:35.833Z,63.55
2019-02-25T09:05:42.175Z,62.43
2019-02-25T09:06:48.079Z,62.37
2019-02-25T09:07:54.097Z,62.69
2019-02-25T09:08:59.994Z,62.80
2019-02-25T09:10:05.239Z,61.39
2019-02-25T09:11:14.153Z,62.52
2019-02-25T09:12:17.112Z,62.17
2019-02-25T09:13:23.842Z,60.78
2019-02-25T09:14:28.993Z,60.61
2019-02-25T09:15:34.889Z,59.47
2019-02-25T09:16:40.934Z,57.36
2019-02-25T09:17:45.427Z,57.62
2019-02-25T09:18:51.324Z,57.55
2019-02-25T09:19:57.245Z,56.72
2019-02-25T09:21:03.156Z,56.92
2019-02-25T09:22:09.139Z,56.13
2019-02-25T09:23:15.049Z,55.61
2019-02-25T09:24:20.937Z,56.12
2019-02-25T09:25:26.839Z,55.90
2019-02-25T09:26:32.787Z,56.06
2019-02-25T09:27:38.364Z,55.30
2019-02-25T09:28:44.267Z,56.16
2019-02-25T09:29:50.199Z,54.83
2019-02-25T09:30:56.135Z,55.90
2019-02-25T09:32:02.023Z,56.41
2019-02-25T09:33:07.973Z,56.36
2019-02-25T09:34:13.884Z,54.46
2019-02-25T09:35:19.812Z,53.64
2019-02-25T09:36:25.806Z,53.28
2019-02-25T09:37:31.668Z,52.27
2019-02-25T09:38:37.599Z,53.70
2019-02-25T09:39:43.511Z,54.61
2019-02-25T09:40:49.402Z,53.84
2019-02-25T09:41:55.284Z,51.60
2019-02-25T09:43:01.284Z,51.55
2019-02-25T09:44:07.225Z,51.98
2019-02-25T09:45:12.450Z,52.90
2019-02-25T09:46:18.370Z,53.19
2019-02-25T09:47:25.096Z,53.16
2019-02-25T09:48:31.008Z,51.85
2019-02-25T09:49:36.906Z,51.96
2019-02-25T09:50:42.814Z,51.74
2019-02-25T09:51:48.727Z,50.30
2019-02-25T09:52:54.690Z,49.78
2019-02-25T09:54:00.615Z,49.29
2019-02-25T09:55:05.850Z,49.58
2019-02-25T09:56:11.758Z,50.08
2019-02-25T09:57:17.656Z,48.70
2019-02-25T09:58:23.582Z,50.23
2019-02-25T09:59:29.500Z,50.15
2019-02-25T10:00:35.362Z,49.77
2019-02-25T10:01:41.959Z,49.52
2019-02-25T10:02:47.901Z,49.95
2019-02-25T10:03:53.841Z,49.14
2019-02-25T10:04:59.765Z,48.81
2019-02-25T10:06:05.694Z,48.10
2019-02-25T10:07:11.687Z,47.79
2019-02-25T10:08:17.885Z,48.23
2019-02-25T10:09:29.820Z,48.31
2019-02-25T10:10:29.871Z,48.60
2019-02-25T10:11:35.797Z,45.91
2019-02-25T10:12:41.772Z,45.66
2019-02-25T10:13:47.704Z,45.61
2019-02-25T10:14:53.616Z,46.42
2019-02-25T10:15:59.618Z,46.03
2019-02-25T10:17:05.565Z,45.74
2019-02-25T10:18:11.478Z,45.74
2019-02-25T10:19:17.395Z,45.36
2019-02-25T10:20:23.297Z,44.86
2019-02-25T10:21:29.228Z,44.61
2019-02-25T10:22:35.200Z,44.30
2019-02-25T10:23:41.194Z,46.15
2019-02-25T10:24:47.150Z,44.30
2019-02-25T10:25:53.101Z,42.68
2019-02-25T10:26:59.021Z,42.64
2019-02-25T10:28:04.610Z,43.39
2019-02-25T10:29:11.153Z,41.80
2019-02-25T10:30:17.763Z,43.55
2019-02-25T10:31:23.766Z,44.07
2019-02-25T10:32:30.256Z,43.44
2019-02-25T10:33:35.714Z,42.94
2019-02-25T10:34:41.639Z,43.17
2019-02-25T10:35:47.590Z,43.24
2019-02-25T10:36:53.548Z,43.43
2019-02-25T10:38:01.131Z,43.79
2019-02-25T10:39:05.594Z,42.80
2019-02-25T10:40:13.234Z,42.19
2019-02-25T10:41:19.666Z,42.89
2019-02-25T10:42:24.662Z,42.06
2019-02-25T10:43:31.868Z,41.32
2019-02-25T10:44:38.097Z,41.79
2019-02-25T10:45:43.384Z,41.46
2019-02-25T10:46:49.102Z,41.07
2019-02-25T10:47:58.424Z,40.40
2019-02-25T10:49:10.912Z,40.77
2019-02-25T10:50:07.454Z,40.89
2019-02-25T10:51:13.672Z,41.73
2019-02-25T10:52:18.949Z,41.97
2019-02-25T10:53:24.898Z,42.41
2019-02-25T10:54:30.846Z,42.77
2019-02-25T10:57:12.633Z,42.47
2019-02-25T10:58:18.553Z,42.14
2019-02-25T10:59:24.534Z,40.98
2019-02-25T11:00:29.862Z,41.42
2019-02-25T11:01:37.533Z,41.87
2019-02-25T11:02:44.262Z,43.29
2019-02-25T11:03:48.252Z,41.51
2019-02-25T11:04:54.014Z,42.13
2019-02-25T11:06:00.819Z,42.50
2019-02-25T11:07:05.688Z,40.93
2019-02-25T11:08:12.048Z,40.85
2019-02-25T11:09:23.772Z,40.89
2019-02-25T11:10:30.251Z,41.59
2019-02-25T11:11:36.016Z,40.05
2019-02-25T11:12:41.589Z,40.61
2019-02-25T11:13:47.498Z,41.28
2019-02-25T11:14:53.396Z,39.64
2019-02-25T11:15:59.274Z,40.89
2019-02-25T11:17:04.481Z,39.92
2019-02-25T11:18:09.755Z,40.31
2019-02-25T11:19:15.789Z,41.32
2019-02-25T11:20:21.716Z,38.97
2019-02-25T11:21:27.615Z,40.06
2019-02-25T11:22:33.551Z,39.24
2019-02-25T11:23:39.117Z,39.21
2019-02-25T11:24:46.826Z,38.13
2019-02-25T11:25:51.492Z,38.61
2019-02-25T11:26:58.566Z,39.74
2019-02-25T11:28:04.931Z,39.62
2019-02-25T11:29:10.138Z,36.03
2019-02-25T11:30:14.787Z,35.84
2019-02-25T11:31:22.788Z,35.91
2019-02-25T11:32:27.893Z,35.97
2019-02-25T11:33:34.323Z,34.95
2019-02-25T11:34:39.796Z,36.67
2019-02-25T11:35:45.764Z,37.51
2019-02-25T11:36:50.864Z,36.49
2019-02-25T11:37:57.046Z,36.58
2019-02-25T11:39:02.538Z,35.89
2019-02-25T11:40:13.681Z,35.50
2019-02-25T11:41:19.285Z,35.27
2019-02-25T11:42:25.226Z,35.04
2019-02-25T11:43:31.185Z,33.52
2019-02-25T11:44:36.773Z,32.44
2019-02-25T11:45:42.397Z,32.84
2019-02-25T11:46:47.976Z,33.27
2019-02-25T11:47:53.871Z,33.87
2019-02-25T11:48:59.456Z,34.50
2019-02-25T11:50:04.668Z,35.74
2019-02-25T11:51:10.578Z,35.10
2019-02-25T11:52:16.503Z,35.27
2019-02-25T11:53:22.100Z,34.08
2019-02-25T11:54:28.027Z,34.27
2019-02-25T11:55:33.598Z,32.89
2019-02-25T11:56:39.604Z,32.69
2019-02-25T11:57:44.823Z,32.02
2019-02-25T11:58:50.748Z,32.33
2019-02-25T11:59:56.649Z,32.27
2019-02-25T12:01:02.215Z,32.16
2019-02-25T12:02:08.123Z,32.33
2019-02-25T12:03:14.070Z,32.61
2019-02-25T12:04:19.741Z,33.26
2019-02-25T12:05:25.697Z,31.62
2019-02-25T12:06:31.651Z,30.86
2019-02-25T12:07:37.561Z,30.25
2019-02-25T12:08:43.525Z,30.37
2019-02-25T12:09:49.471Z,31.87
2019-02-25T12:10:55.424Z,31.95
2019-02-25T12:12:01.379Z,30.86
2019-02-25T12:13:07.300Z,30.57
2019-02-25T12:14:13.360Z,31.91
2019-02-25T12:15:23.273Z,32.55
2019-02-25T12:16:29.287Z,31.88
2019-02-25T12:17:35.267Z,30.90
2019-02-25T12:18:41.221Z,30.09
2019-02-25T12:19:47.130Z,30.52
2019-02-25T12:20:53.124Z,30.68
2019-02-25T12:21:59.044Z,31.16
2019-02-25T12:23:04.621Z,30.36
2019-02-25T12:24:10.621Z,30.67
2019-02-25T12:25:23.497Z,31.18
2019-02-25T12:26:29.442Z,31.90
2019-02-25T12:27:35.380Z,32.10
2019-02-25T12:28:41.465Z,32.22
2019-02-25T12:29:47.575Z,31.76
2019-02-25T12:30:53.498Z,33.34
2019-02-25T12:31:59.443Z,31.83
2019-02-25T12:33:05.487Z,30.36
2019-02-25T12:34:11.459Z,30.56
2019-02-25T12:35:18.053Z,30.42
2019-02-25T12:36:24.661Z,30.78
2019-02-25T12:37:30.608Z,31.34
2019-02-25T12:38:36.595Z,30.51
2019-02-25T12:39:42.605Z,31.49
2019-02-25T12:40:48.400Z,30.40
2019-02-25T12:41:53.999Z,30.61
2019-02-25T12:42:59.968Z,29.94
2019-02-25T12:44:05.980Z,30.00
2019-02-25T12:45:12.039Z,31.16
2019-02-25T12:46:18.053Z,31.84
2019-02-25T12:47:24.023Z,31.74
2019-02-25T12:48:29.945Z,31.85
2019-02-25T12:49:36.033Z,31.88
2019-02-25T12:50:41.982Z,31.63
2019-02-25T12:51:47.946Z,33.42
2019-02-25T12:52:53.916Z,31.43
2019-02-25T12:53:59.842Z,31.21
2019-02-25T12:55:05.186Z,30.58
2019-02-25T12:56:10.750Z,30.53
2019-02-25T12:57:16.710Z,30.97
2019-02-25T12:58:22.274Z,31.83
2019-02-25T12:59:28.297Z,30.28
2019-02-25T13:00:34.250Z,30.71
2019-02-25T13:01:40.148Z,30.48
2019-02-25T13:02:45.788Z,30.26
2019-02-25T13:03:51.341Z,30.57
2019-02-25T13:04:57.278Z,30.63
2019-02-25T13:06:04.421Z,29.76
2019-02-25T13:07:11.381Z,29.89
2019-02-25T13:08:17.442Z,30.50
2019-02-25T13:09:23.423Z,30.40
2019-02-25T13:10:29.332Z,29.72
2019-02-25T13:11:35.876Z,29.53
2019-02-25T13:12:41.827Z,30.27
2019-02-25T13:13:47.787Z,30.94
2019-02-25T13:14:53.778Z,30.67
2019-02-25T13:15:59.721Z,31.67
2019-02-25T13:17:05.688Z,30.16
2019-02-25T13:18:11.725Z,30.17
2019-02-25T13:19:17.748Z,29.42
2019-02-25T13:20:23.729Z,29.81
2019-02-25T13:21:29.721Z,30.57
2019-02-25T13:22:35.644Z,29.22
2019-02-25T13:23:41.569Z,29.49
2019-02-25T13:24:47.579Z,30.23
2019-02-25T13:25:53.536Z,30.61
2019-02-25T13:27:01.023Z,31.44
2019-02-25T13:28:04.822Z,29.54
2019-02-25T13:29:10.888Z,29.58
2019-02-25T13:30:16.193Z,29.26
2019-02-25T13:31:22.165Z,27.42
2019-02-25T13:32:28.133Z,29.46
2019-02-25T13:33:34.129Z,27.19
2019-02-25T13:34:40.114Z,26.85
2019-02-25T13:35:46.212Z,26.42
2019-02-25T13:36:52.209Z,27.51
2019-02-25T13:37:58.334Z,27.27
2019-02-25T13:39:04.939Z,27.77
2019-02-25T13:40:14.742Z,28.25
2019-02-25T13:41:20.644Z,28.40
2019-02-25T13:42:26.637Z,27.12
2019-02-25T13:43:32.635Z,26.18
2019-02-25T13:44:38.851Z,25.85
2019-02-25T13:45:44.913Z,23.92
2019-02-25T13:46:50.940Z,24.23
2019-02-25T13:47:57.056Z,25.51
2019-02-25T13:49:03.297Z,26.63
2019-02-25T13:50:09.224Z,24.98
2019-02-25T13:51:15.191Z,24.73
2019-02-25T13:52:21.303Z,23.61
2019-02-25T13:53:27.237Z,23.26
2019-02-25T13:54:33.497Z,23.98
2019-02-25T13:55:39.533Z,24.54
2019-02-25T13:56:45.179Z,25.25
2019-02-25T13:57:50.506Z,24.23
2019-02-25T13:58:56.511Z,23.56
2019-02-25T14:00:02.499Z,23.56
2019-02-25T14:01:08.136Z,23.89
2019-02-25T14:02:14.141Z,22.91
2019-02-25T14:03:20.140Z,23.63
2019-02-25T14:04:26.088Z,22.68
2019-02-25T14:05:31.726Z,22.47
2019-02-25T14:06:37.314Z,22.10
2019-02-25T14:07:43.257Z,23.17
2019-02-25T14:08:49.259Z,23.16
2019-02-25T14:09:55.256Z,23.50
2019-02-25T14:11:01.236Z,23.86
2019-02-25T14:12:07.439Z,23.62
2019-02-25T14:13:13.071Z,24.20
2019-02-25T14:14:18.664Z,23.20
2019-02-25T14:15:23.943Z,23.90
2019-02-25T14:16:30.116Z,23.11
2019-02-25T14:17:35.805Z,23.74
2019-02-25T14:18:41.429Z,25.36
2019-02-25T14:19:46.666Z,22.77
2019-02-25T14:20:52.666Z,21.48
2019-02-25T14:21:59.376Z,22.69